sensor_id;sensor_type;location;lat;lon;timestamp;temperature;humidity
73875;HTU21D;62209;47.568;7.558;2022-09-09T00:08:19;15.93;96.11
73875;HTU21D;62209;47.568;7.558;2022-09-09T00:23:28;15.82;99.21
73875;HTU21D;62209;47.568;7.558;2022-09-09T00:38:36;15.82;99.09
73875;HTU21D;62209;47.568;7.558;2022-09-09T00:53:55;15.84;101.28
73875;HTU21D;62209;47.568;7.558;2022-09-09T01:09:17;15.74;103.18
73875;HTU21D;62209;47.568;7.558;2022-09-09T01:24:30;15.77;104.24
73875;HTU21D;62209;47.568;7.558;2022-09-09T01:39:43;15.88;104.15
73875;HTU21D;62209;47.568;7.558;2022-09-09T01:54:49;15.72;104.90
73875;HTU21D;62209;47.568;7.558;2022-09-09T02:09:57;15.80;104.68
73875;HTU21D;62209;47.568;7.558;2022-09-09T02:25:08;15.66;105.53
73875;HTU21D;62209;47.568;7.558;2022-09-09T02:40:17;15.71;105.28
73875;HTU21D;62209;47.568;7.558;2022-09-09T02:55:27;15.67;106.19
73875;HTU21D;62209;47.568;7.558;2022-09-09T03:10:41;15.70;106.27
73875;HTU21D;62209;47.568;7.558;2022-09-09T03:25:49;15.78;106.41
73875;HTU21D;62209;47.568;7.558;2022-09-09T03:40:56;15.55;106.21
73875;HTU21D;62209;47.568;7.558;2022-09-09T03:56:04;15.52;106.33
73875;HTU21D;62209;47.568;7.558;2022-09-09T04:11:10;15.45;107.16
73875;HTU21D;62209;47.568;7.558;2022-09-09T04:26:16;15.40;107.01
73875;HTU21D;62209;47.568;7.558;2022-09-09T04:41:23;15.27;106.38
73875;HTU21D;62209;47.568;7.558;2022-09-09T04:56:28;15.28;106.40
73875;HTU21D;62209;47.568;7.558;2022-09-09T05:11:34;15.22;106.19
73875;HTU21D;62209;47.568;7.558;2022-09-09T05:26:41;15.37;106.49
73875;HTU21D;62209;47.568;7.558;2022-09-09T05:41:47;15.54;107.31
73875;HTU21D;62209;47.568;7.558;2022-09-09T05:56:53;15.93;107.51
73875;HTU21D;62209;47.568;7.558;2022-09-09T06:11:58;15.99;106.56
73875;HTU21D;62209;47.568;7.558;2022-09-09T06:27:04;16.74;105.05
73875;HTU21D;62209;47.568;7.558;2022-09-09T06:42:10;16.90;105.02
73875;HTU21D;62209;47.568;7.558;2022-09-09T06:57:16;16.93;106.00
73875;HTU21D;62209;47.568;7.558;2022-09-09T07:12:41;17.20;103.85
73875;HTU21D;62209;47.568;7.558;2022-09-09T07:27:47;18.18;99.85
73875;HTU21D;62209;47.568;7.558;2022-09-09T07:42:53;19.52;94.07
73875;HTU21D;62209;47.568;7.558;2022-09-09T07:57:58;19.46;90.33
73875;HTU21D;62209;47.568;7.558;2022-09-09T08:13:04;19.73;87.89
73875;HTU21D;62209;47.568;7.558;2022-09-09T08:28:20;21.19;83.62
73875;HTU21D;62209;47.568;7.558;2022-09-09T08:43:26;20.94;84.16
73875;HTU21D;62209;47.568;7.558;2022-09-09T08:58:33;20.51;80.33
73875;HTU21D;62209;47.568;7.558;2022-09-09T09:13:52;21.24;76.08
73875;HTU21D;62209;47.568;7.558;2022-09-09T09:29:03;22.73;75.58
73875;HTU21D;62209;47.568;7.558;2022-09-09T09:44:25;24.01;71.87
73875;HTU21D;62209;47.568;7.558;2022-09-09T09:59:35;23.56;67.32
73875;HTU21D;62209;47.568;7.558;2022-09-09T10:14:45;23.56;67.14
73875;HTU21D;62209;47.568;7.558;2022-09-09T10:30:03;23.46;65.43
73875;HTU21D;62209;47.568;7.558;2022-09-09T10:45:17;22.97;68.58
73875;HTU21D;62209;47.568;7.558;2022-09-09T11:00:30;24.16;65.67
73875;HTU21D;62209;47.568;7.558;2022-09-09T11:15:44;23.71;69.13
73875;HTU21D;62209;47.568;7.558;2022-09-09T11:30:57;24.40;67.58
73875;HTU21D;62209;47.568;7.558;2022-09-09T11:46:15;22.85;69.50
73875;HTU21D;62209;47.568;7.558;2022-09-09T12:01:36;24.26;66.61
73875;HTU21D;62209;47.568;7.558;2022-09-09T12:16:44;23.09;68.78
73875;HTU21D;62209;47.568;7.558;2022-09-09T12:31:52;22.58;69.35
73875;HTU21D;62209;47.568;7.558;2022-09-09T12:47:03;21.50;67.24
73875;HTU21D;62209;47.568;7.558;2022-09-09T13:02:20;20.95;68.39
73875;HTU21D;62209;47.568;7.558;2022-09-09T13:17:27;22.39;68.87
73875;HTU21D;62209;47.568;7.558;2022-09-09T13:32:33;23.05;66.08
73875;HTU21D;62209;47.568;7.558;2022-09-09T13:47:38;23.38;63.79
73875;HTU21D;62209;47.568;7.558;2022-09-09T14:02:45;23.64;65.14
73875;HTU21D;62209;47.568;7.558;2022-09-09T14:17:51;23.31;63.11
73875;HTU21D;62209;47.568;7.558;2022-09-09T14:32:56;23.42;62.09
73875;HTU21D;62209;47.568;7.558;2022-09-09T14:48:02;23.52;62.69
73875;HTU21D;62209;47.568;7.558;2022-09-09T15:03:09;23.44;63.52
73875;HTU21D;62209;47.568;7.558;2022-09-09T15:18:15;22.51;66.15
73875;HTU21D;62209;47.568;7.558;2022-09-09T15:33:21;21.83;67.84
73875;HTU21D;62209;47.568;7.558;2022-09-09T15:48:29;20.81;70.69
73875;HTU21D;62209;47.568;7.558;2022-09-09T16:03:37;19.13;80.71
73875;HTU21D;62209;47.568;7.558;2022-09-09T16:18:48;19.18;81.72
73875;HTU21D;62209;47.568;7.558;2022-09-09T16:33:55;19.35;78.82
73875;HTU21D;62209;47.568;7.558;2022-09-09T16:49:01;19.92;76.90
73875;HTU21D;62209;47.568;7.558;2022-09-09T17:04:10;19.91;77.45
73875;HTU21D;62209;47.568;7.558;2022-09-09T17:19:18;19.68;78.92
73875;HTU21D;62209;47.568;7.558;2022-09-09T17:34:24;19.59;80.09
73875;HTU21D;62209;47.568;7.558;2022-09-09T17:49:30;18.89;80.54
73875;HTU21D;62209;47.568;7.558;2022-09-09T18:04:37;18.87;81.04
73875;HTU21D;62209;47.568;7.558;2022-09-09T18:19:42;18.25;81.35
73875;HTU21D;62209;47.568;7.558;2022-09-09T18:34:48;18.29;82.58
73875;HTU21D;62209;47.568;7.558;2022-09-09T18:49:57;18.52;84.48
73875;HTU21D;62209;47.568;7.558;2022-09-09T19:05:04;18.44;87.73
73875;HTU21D;62209;47.568;7.558;2022-09-09T19:20:10;17.52;88.51
73875;HTU21D;62209;47.568;7.558;2022-09-09T19:35:18;17.14;87.32
73875;HTU21D;62209;47.568;7.558;2022-09-09T19:50:24;16.82;88.69
73875;HTU21D;62209;47.568;7.558;2022-09-09T20:05:32;16.27;90.02
73875;HTU21D;62209;47.568;7.558;2022-09-09T20:20:40;15.87;91.15
73875;HTU21D;62209;47.568;7.558;2022-09-09T20:35:46;15.59;92.31
73875;HTU21D;62209;47.568;7.558;2022-09-09T20:50:52;15.21;95.00
73875;HTU21D;62209;47.568;7.558;2022-09-09T21:05:58;14.73;96.58
73875;HTU21D;62209;47.568;7.558;2022-09-09T21:21:04;14.64;94.54
73875;HTU21D;62209;47.568;7.558;2022-09-09T21:36:11;14.68;95.15
73875;HTU21D;62209;47.568;7.558;2022-09-09T21:51:18;15.00;92.94
73875;HTU21D;62209;47.568;7.558;2022-09-09T22:06:23;15.55;89.11
73875;HTU21D;62209;47.568;7.558;2022-09-09T22:21:29;15.90;87.72
73875;HTU21D;62209;47.568;7.558;2022-09-09T22:36:36;15.72;88.78
73875;HTU21D;62209;47.568;7.558;2022-09-09T22:51:42;15.80;87.44
73875;HTU21D;62209;47.568;7.558;2022-09-09T23:06:47;15.95;86.75
73875;HTU21D;62209;47.568;7.558;2022-09-09T23:21:53;15.78;88.34
73875;HTU21D;62209;47.568;7.558;2022-09-09T23:37:00;15.96;89.07
73875;HTU21D;62209;47.568;7.558;2022-09-09T23:52:06;15.96;90.11
